Time;durP1;ratioP1;P1;durP2;ratioP2;P2;SDS_P1;SDS_P2;PMS_P1;PMS_P2;Temp;Humidity;BMP_temperature;BMP_pressure;BME280_temperature;BME280_humidity;BME280_pressure;Samples;Min_cycle;Max_cycle;Signal;HPM_P1;HPM_P2
2021/07/08 00:02:25;;;;;;;9.90;7.27;;;14.80;99.90;;;;;;4376220;32;20480;-63
2021/07/08 00:04:52;;;;;;;8.63;6.43;;;14.80;99.90;;;;;;4372206;32;20219;-60
2021/07/08 00:07:19;;;;;;;10.03;6.30;;;14.80;99.90;;;;;;4374747;32;20271;-61
2021/07/08 00:09:46;;;;;;;12.07;7.33;;;14.80;99.90;;;;;;4373749;32;20178;-62
2021/07/08 00:12:14;;;;;;;13.97;6.90;;;14.70;99.90;;;;;;4374548;32;20175;-61
2021/07/08 00:14:41;;;;;;;11.60;7.40;;;14.70;99.90;;;;;;4371549;32;20172;-60
2021/07/08 00:17:07;;;;;;;6.93;6.23;;;14.80;99.90;;;;;;4375220;32;20592;-60
2021/07/08 00:19:35;;;;;;;9.00;6.10;;;14.70;99.90;;;;;;4374677;32;20192;-60
2021/07/08 00:22:04;;;;;;;9.20;6.37;;;14.70;99.90;;;;;;4374076;32;20168;-61
2021/07/08 00:24:31;;;;;;;8.27;6.83;;;14.60;99.90;;;;;;4374193;32;20171;-63
2021/07/08 00:26:58;;;;;;;9.17;7.07;;;14.60;99.90;;;;;;4376443;32;20160;-63
2021/07/08 00:29:29;;;;;;;9.57;7.57;;;14.60;99.90;;;;;;4374542;32;20170;-62
2021/07/08 00:31:56;;;;;;;12.60;7.10;;;14.60;99.90;;;;;;4376413;32;20584;-62
2021/07/08 00:34:22;;;;;;;10.00;6.60;;;14.60;99.90;;;;;;4373033;32;20203;-62
2021/07/08 00:36:49;;;;;;;11.70;7.77;;;14.60;99.90;;;;;;4375441;32;20437;-62
2021/07/08 00:39:16;;;;;;;10.10;6.93;;;14.70;99.90;;;;;;4374920;32;20223;-62
2021/07/08 00:41:43;;;;;;;12.37;7.10;;;14.70;99.90;;;;;;4373725;32;20242;-62
2021/07/08 00:44:10;;;;;;;10.93;7.37;;;14.60;99.90;;;;;;4370860;32;20156;-62
2021/07/08 00:46:38;;;;;;;11.23;6.60;;;14.60;99.90;;;;;;4373617;32;20613;-63
2021/07/08 00:49:05;;;;;;;11.67;6.77;;;14.60;99.90;;;;;;4374451;32;20571;-63
2021/07/08 00:51:32;;;;;;;8.67;6.10;;;14.70;99.90;;;;;;4375151;32;20183;-63
2021/07/08 00:53:58;;;;;;;13.40;7.50;;;14.70;99.90;;;;;;4373918;32;20152;-63
2021/07/08 00:56:33;;;;;;;10.63;6.30;;;14.70;99.90;;;;;;4368905;32;20294;-63
2021/07/08 00:59:05;;;;;;;7.27;5.57;;;14.80;99.90;;;;;;4375374;32;20210;-62
2021/07/08 01:01:33;;;;;;;7.83;6.03;;;14.80;99.90;;;;;;4371193;32;20178;-62
2021/07/08 01:04:03;;;;;;;10.70;6.10;;;14.70;99.90;;;;;;4374249;32;20239;-61
2021/07/08 01:06:32;;;;;;;12.07;6.20;;;14.70;99.90;;;;;;4371334;32;20186;-62
2021/07/08 01:08:59;;;;;;;8.40;6.77;;;14.70;99.90;;;;;;4372976;32;20182;-61
2021/07/08 01:11:27;;;;;;;8.53;5.77;;;14.70;99.90;;;;;;4363015;32;20251;-63
2021/07/08 01:13:57;;;;;;;7.73;6.23;;;14.70;99.90;;;;;;4362045;32;20222;-60
2021/07/08 01:16:26;;;;;;;9.27;6.47;;;14.70;99.90;;;;;;4362963;32;20240;-59
2021/07/08 01:19:04;;;;;;;8.60;5.73;;;14.70;99.90;;;;;;4366471;32;20242;-62
2021/07/08 01:21:35;;;;;;;10.07;6.77;;;14.70;99.90;;;;;;4366415;32;20179;-63
2021/07/08 01:24:07;;;;;;;8.93;6.90;;;14.70;99.90;;;;;;4366065;32;20619;-62
2021/07/08 01:29:16;;;;;;;11.83;7.47;;;14.90;99.90;;;;;;4369102;32;20601;-61
2021/07/08 01:31:43;;;;;;;9.30;6.20;;;14.90;99.90;;;;;;4370639;32;20168;-62
2021/07/08 01:34:09;;;;;;;8.63;6.63;;;15.00;99.90;;;;;;4378032;32;20215;-62
2021/07/08 01:36:40;;;;;;;9.50;6.13;;;15.00;99.90;;;;;;4373925;32;20219;-61
2021/07/08 01:39:07;;;;;;;10.93;6.50;;;15.10;99.90;;;;;;4376783;32;20157;-62
2021/07/08 01:41:34;;;;;;;9.17;6.40;;;15.10;99.90;;;;;;4376305;32;20168;-62
2021/07/08 01:44:03;;;;;;;9.00;6.67;;;15.20;99.90;;;;;;4377142;32;20168;-61
2021/07/08 01:46:30;;;;;;;13.60;6.87;;;15.20;99.90;;;;;;4374029;32;20226;-61
2021/07/08 01:48:59;;;;;;;10.37;6.30;;;15.30;99.90;;;;;;4376933;32;20186;-61
2021/07/08 01:51:30;;;;;;;7.50;6.23;;;15.30;99.90;;;;;;4377814;32;20160;-61
2021/07/08 01:53:59;;;;;;;8.40;6.17;;;15.30;99.90;;;;;;4377181;32;20156;-62
2021/07/08 01:56:26;;;;;;;9.50;5.93;;;15.20;99.90;;;;;;4375395;32;20186;-61
2021/07/08 01:58:54;;;;;;;9.13;5.77;;;15.20;99.90;;;;;;4376490;32;20493;-60
2021/07/08 02:01:22;;;;;;;9.67;6.03;;;15.10;99.90;;;;;;4376725;32;20198;-61
2021/07/08 02:03:49;;;;;;;8.80;6.20;;;15.10;99.90;;;;;;4377630;32;20183;-61
2021/07/08 02:06:18;;;;;;;7.27;5.87;;;15.20;99.90;;;;;;4371068;32;20247;-60
2021/07/08 02:08:46;;;;;;;6.43;5.67;;;15.10;99.90;;;;;;4373401;32;20691;-60
2021/07/08 02:11:15;;;;;;;7.97;6.13;;;15.10;99.90;;;;;;4374142;32;20164;-61
2021/07/08 02:13:42;;;;;;;11.03;6.33;;;15.10;99.90;;;;;;4373730;32;20156;-62
2021/07/08 02:16:10;;;;;;;7.40;6.20;;;15.00;99.90;;;;;;4365702;32;20164;-62
2021/07/08 02:18:41;;;;;;;10.63;6.43;;;15.00;99.90;;;;;;4374922;32;20147;-62
2021/07/08 02:21:10;;;;;;;7.03;5.60;;;15.00;99.90;;;;;;4375674;32;20161;-60
2021/07/08 02:23:37;;;;;;;6.83;5.93;;;14.90;99.90;;;;;;4376478;32;20171;-61
2021/07/08 02:26:05;;;;;;;9.47;6.63;;;14.80;99.90;;;;;;4374789;32;20144;-61
2021/07/08 02:28:34;;;;;;;9.30;6.50;;;14.80;99.90;;;;;;4374636;32;20160;-61
2021/07/08 02:31:01;;;;;;;10.23;6.50;;;14.80;99.90;;;;;;4375586;32;20302;-61
2021/07/08 02:33:28;;;;;;;9.33;6.97;;;14.80;99.90;;;;;;4371025;32;20171;-61
2021/07/08 02:35:55;;;;;;;10.93;6.37;;;14.90;99.90;;;;;;4377247;32;20156;-61
2021/07/08 02:38:22;;;;;;;9.80;6.83;;;14.90;99.90;;;;;;4374394;32;20647;-60
2021/07/08 02:40:50;;;;;;;11.27;7.50;;;14.80;99.90;;;;;;4375970;32;20569;-62
2021/07/08 02:43:17;;;;;;;11.93;7.37;;;14.70;99.90;;;;;;4375588;32;20179;-60
2021/07/08 02:45:46;;;;;;;8.00;6.47;;;14.70;99.90;;;;;;4375852;32;20168;-61
2021/07/08 02:48:15;;;;;;;11.27;7.23;;;14.60;99.90;;;;;;4372604;32;20211;-62
2021/07/08 02:50:44;;;;;;;12.93;7.23;;;14.60;99.90;;;;;;4376053;32;20168;-62
2021/07/08 02:53:14;;;;;;;10.20;7.37;;;14.60;99.90;;;;;;4376814;32;20149;-63
2021/07/08 02:55:41;;;;;;;8.80;6.77;;;14.60;99.90;;;;;;4378005;32;20558;-62
2021/07/08 02:58:08;;;;;;;10.60;6.63;;;14.50;99.90;;;;;;4374246;32;20191;-61
2021/07/08 03:00:35;;;;;;;9.60;7.17;;;14.50;99.90;;;;;;4375279;32;20183;-63
2021/07/08 03:03:04;;;;;;;9.60;6.80;;;14.40;99.90;;;;;;4376497;32;20592;-62
2021/07/08 03:05:32;;;;;;;7.17;5.97;;;14.40;99.90;;;;;;4376202;32;20219;-61
2021/07/08 03:07:59;;;;;;;9.80;6.93;;;14.40;99.90;;;;;;4373751;32;20167;-63
2021/07/08 03:10:29;;;;;;;9.13;7.23;;;14.30;99.90;;;;;;4374340;32;20699;-62
2021/07/08 03:12:59;;;;;;;11.40;7.40;;;14.30;99.90;;;;;;4374871;32;20175;-61
2021/07/08 03:15:28;;;;;;;8.17;7.03;;;14.30;99.90;;;;;;4374631;32;20183;-61
2021/07/08 03:17:57;;;;;;;10.23;7.03;;;14.30;99.90;;;;;;4374488;32;20219;-61
2021/07/08 03:20:30;;;;;;;9.57;7.20;;;14.40;99.90;;;;;;4374741;32;20211;-62
2021/07/08 03:22:58;;;;;;;14.10;7.17;;;14.30;99.90;;;;;;4374953;32;20160;-61
2021/07/08 03:25:25;;;;;;;8.63;6.77;;;14.20;99.90;;;;;;4375078;32;20180;-61
2021/07/08 03:27:55;;;;;;;8.27;6.37;;;14.30;99.90;;;;;;4375506;32;20152;-62
2021/07/08 03:30:24;;;;;;;9.23;5.93;;;14.30;99.90;;;;;;4373341;32;20565;-61
2021/07/08 03:32:52;;;;;;;7.77;6.00;;;14.20;99.90;;;;;;4375654;32;20167;-62
2021/07/08 03:35:19;;;;;;;10.20;6.73;;;14.20;99.90;;;;;;4365700;32;20157;-62
2021/07/08 03:37:51;;;;;;;8.30;6.70;;;14.30;99.90;;;;;;4375265;32;20183;-61
2021/07/08 03:40:19;;;;;;;9.30;6.13;;;14.30;99.90;;;;;;4373075;32;20153;-61
2021/07/08 03:42:48;;;;;;;10.20;5.83;;;14.40;99.90;;;;;;4375103;32;20227;-61
2021/07/08 03:45:16;;;;;;;9.50;6.33;;;14.50;99.90;;;;;;4374849;32;20148;-62
2021/07/08 03:47:44;;;;;;;9.17;7.00;;;14.50;99.90;;;;;;4375868;32;20190;-62
2021/07/08 03:50:13;;;;;;;10.30;6.67;;;14.50;99.90;;;;;;4368485;32;20161;-63
2021/07/08 03:52:41;;;;;;;9.00;6.57;;;14.50;99.90;;;;;;4375510;32;20269;-61
2021/07/08 03:55:12;;;;;;;9.30;6.83;;;14.50;99.90;;;;;;4372296;32;20163;-62
2021/07/08 03:57:52;;;;;;;8.90;7.00;;;14.50;99.90;;;;;;4358204;32;20167;-62
2021/07/08 04:00:20;;;;;;;12.30;7.63;;;14.60;99.90;;;;;;4319444;32;1665325;-62
2021/07/08 04:02:47;;;;;;;8.90;6.87;;;14.70;99.90;;;;;;4377284;32;20568;-62
2021/07/08 04:05:14;;;;;;;9.83;6.70;;;14.70;99.90;;;;;;4376245;32;20156;-62
2021/07/08 04:07:43;;;;;;;11.13;7.07;;;14.80;99.90;;;;;;4376150;32;20167;-62
2021/07/08 04:10:11;;;;;;;11.67;7.90;;;14.80;99.90;;;;;;4375316;32;20561;-61
2021/07/08 04:12:38;;;;;;;9.17;6.53;;;14.70;99.90;;;;;;4375408;32;20565;-62
2021/07/08 04:15:07;;;;;;;9.90;7.03;;;14.80;99.90;;;;;;4375751;32;20568;-61
2021/07/08 04:17:34;;;;;;;10.70;7.83;;;14.80;99.90;;;;;;4374901;32;20174;-61
2021/07/08 04:20:03;;;;;;;7.37;6.53;;;14.90;99.90;;;;;;4372280;32;20565;-63
2021/07/08 04:22:30;;;;;;;12.77;7.00;;;14.90;99.90;;;;;;4360852;32;20187;-62
2021/07/08 04:24:57;;;;;;;10.37;7.00;;;14.80;99.90;;;;;;4371207;32;20214;-63
2021/07/08 04:27:26;;;;;;;10.07;6.50;;;14.80;99.90;;;;;;4375296;32;20186;-61
2021/07/08 04:29:53;;;;;;;12.83;7.27;;;14.80;99.90;;;;;;4375377;32;20172;-63
2021/07/08 04:32:20;;;;;;;8.53;7.20;;;14.80;99.90;;;;;;4374695;32;20505;-62
2021/07/08 04:34:47;;;;;;;8.90;6.80;;;14.90;99.90;;;;;;4375090;32;20557;-60
2021/07/08 04:37:14;;;;;;;9.87;6.73;;;15.00;99.90;;;;;;4374616;32;20152;-63
2021/07/08 04:39:41;;;;;;;10.57;7.37;;;15.30;99.90;;;;;;4361950;32;20183;-62
2021/07/08 04:42:10;;;;;;;11.73;7.17;;;15.60;99.90;;;;;;4374865;32;20223;-60
2021/07/08 04:44:38;;;;;;;10.43;6.40;;;15.80;99.90;;;;;;4375274;32;20460;-60
2021/07/08 04:47:05;;;;;;;7.83;5.83;;;15.90;99.90;;;;;;4375800;32;20158;-59
2021/07/08 04:49:35;;;;;;;8.57;6.53;;;16.10;99.90;;;;;;4374782;32;20163;-61
2021/07/08 04:52:02;;;;;;;6.93;6.23;;;16.20;99.90;;;;;;4372809;32;20170;-61
2021/07/08 04:54:29;;;;;;;10.83;6.30;;;16.30;99.90;;;;;;4374862;32;20235;-60
2021/07/08 04:56:58;;;;;;;9.90;5.90;;;16.30;99.90;;;;;;4375478;32;20166;-62
2021/07/08 04:59:28;;;;;;;6.93;5.47;;;16.40;99.90;;;;;;4374837;32;20160;-60
2021/07/08 05:01:56;;;;;;;7.70;6.33;;;16.50;99.90;;;;;;4373858;32;20219;-61
2021/07/08 05:04:23;;;;;;;9.80;6.07;;;16.60;99.90;;;;;;4375040;32;20182;-61
2021/07/08 05:06:50;;;;;;;8.73;6.50;;;16.70;99.90;;;;;;4374770;32;20187;-61
2021/07/08 05:09:17;;;;;;;7.37;6.20;;;16.80;99.90;;;;;;4375606;32;20679;-61
2021/07/08 05:11:43;;;;;;;8.73;6.03;;;16.80;99.90;;;;;;4371922;32;20604;-60
2021/07/08 05:14:13;;;;;;;8.00;5.97;;;16.90;99.90;;;;;;4375449;32;20133;-61
2021/07/08 05:16:39;;;;;;;7.47;5.43;;;16.90;99.90;;;;;;4374518;32;20144;-61
2021/07/08 05:19:09;;;;;;;8.67;5.77;;;16.90;99.90;;;;;;4375148;32;20156;-61
2021/07/08 05:21:45;;;;;;;12.30;5.70;;;17.00;99.90;;;;;;4372998;32;20149;-61
2021/07/08 05:24:11;;;;;;;10.23;5.07;;;16.90;99.90;;;;;;4373922;32;20157;-62
2021/07/08 05:26:38;;;;;;;7.93;4.60;;;17.00;99.90;;;;;;4375306;32;20144;-60
2021/07/08 05:29:08;;;;;;;6.77;5.20;;;17.00;99.90;;;;;;4374908;32;20159;-60
2021/07/08 05:31:35;;;;;;;7.17;5.33;;;17.00;99.90;;;;;;4372715;32;20157;-61
2021/07/08 05:34:01;;;;;;;5.77;5.03;;;17.00;99.90;;;;;;4375714;32;20484;-61
2021/07/08 05:36:30;;;;;;;7.87;5.47;;;17.10;99.90;;;;;;4373501;32;20159;-61
2021/07/08 05:38:57;;;;;;;6.93;5.83;;;17.10;99.90;;;;;;4375002;32;20184;-61
2021/07/08 05:41:23;;;;;;;8.60;6.57;;;17.20;99.90;;;;;;4373434;32;20144;-60
2021/07/08 05:43:55;;;;;;;7.20;5.87;;;17.40;99.90;;;;;;4364187;32;20210;-61
2021/07/08 05:46:26;;;;;;;9.37;5.93;;;17.70;99.90;;;;;;4374405;32;20163;-61
2021/07/08 05:48:53;;;;;;;10.53;5.30;;;17.90;99.90;;;;;;4375607;32;20140;-60
2021/07/08 05:51:20;;;;;;;6.03;5.40;;;17.90;99.90;;;;;;4376876;32;20234;-60
2021/07/08 05:53:48;;;;;;;6.53;5.40;;;18.00;99.90;;;;;;4375942;32;20708;-60
2021/07/08 05:56:15;;;;;;;8.83;5.40;;;18.00;99.90;;;;;;4375924;32;20592;-62
2021/07/08 05:58:42;;;;;;;7.37;5.40;;;18.10;99.90;;;;;;4376027;32;20180;-61
2021/07/08 06:01:08;;;;;;;5.63;5.03;;;18.10;99.90;;;;;;4376489;32;20160;-61
2021/07/08 06:03:35;;;;;;;7.47;4.97;;;18.30;99.90;;;;;;4369161;32;20224;-60
2021/07/08 06:06:02;;;;;;;6.63;5.57;;;18.40;99.90;;;;;;4375556;32;20152;-62
2021/07/08 06:08:29;;;;;;;6.40;4.93;;;18.50;99.90;;;;;;4375100;32;20560;-61
2021/07/08 06:10:57;;;;;;;7.33;5.47;;;18.70;99.90;;;;;;4375159;32;20165;-63
2021/07/08 06:13:27;;;;;;;8.07;5.10;;;18.90;99.90;;;;;;4372678;32;20468;-61
2021/07/08 06:15:54;;;;;;;8.97;6.07;;;19.30;99.90;;;;;;4376030;32;20693;-62
2021/07/08 06:18:21;;;;;;;9.03;5.30;;;19.80;99.90;;;;;;4375308;32;20164;-61
2021/07/08 06:20:49;;;;;;;6.83;5.20;;;20.30;99.90;;;;;;4376168;32;20200;-62
2021/07/08 06:23:19;;;;;;;8.13;5.27;;;20.80;99.90;;;;;;4374568;32;20484;-63
2021/07/08 06:25:47;;;;;;;6.77;5.00;;;20.90;99.90;;;;;;4375388;32;20163;-62
2021/07/08 06:28:15;;;;;;;6.20;4.90;;;21.00;99.90;;;;;;4375932;32;20202;-63
2021/07/08 06:30:42;;;;;;;7.37;5.10;;;21.00;99.90;;;;;;4375556;32;20632;-61
2021/07/08 06:33:09;;;;;;;4.90;4.47;;;21.10;99.90;;;;;;4376095;32;20488;-62
2021/07/08 06:35:36;;;;;;;7.57;4.00;;;21.00;99.90;;;;;;4376497;32;20167;-62
2021/07/08 06:38:03;;;;;;;5.30;4.53;;;20.80;99.90;;;;;;4377545;32;20171;-62
2021/07/08 06:40:30;;;;;;;16.67;6.00;;;20.60;99.90;;;;;;4377033;32;20227;-61
2021/07/08 06:43:00;;;;;;;9.47;5.37;;;20.30;99.90;;;;;;4376323;32;20194;-61
2021/07/08 06:45:30;;;;;;;7.60;4.93;;;19.90;99.90;;;;;;4375538;32;20156;-63
2021/07/08 06:48:02;;;;;;;9.80;5.20;;;19.80;99.90;;;;;;4374947;32;20560;-64
2021/07/08 06:50:30;;;;;;;7.50;4.87;;;19.80;99.90;;;;;;4375643;32;20140;-63
2021/07/08 06:52:59;;;;;;;9.93;4.40;;;19.90;99.90;;;;;;4377745;32;20167;-63
2021/07/08 06:55:26;;;;;;;10.50;4.60;;;19.90;99.90;;;;;;4376430;32;20195;-65
2021/07/08 06:57:53;;;;;;;4.60;3.30;;;20.10;99.90;;;;;;4375435;32;20231;-61
2021/07/08 07:00:22;;;;;;;5.50;3.83;;;20.10;99.90;;;;;;4374753;32;20190;-62
2021/07/08 07:02:50;;;;;;;7.57;3.20;;;20.10;99.90;;;;;;4375772;32;20219;-61
2021/07/08 07:05:17;;;;;;;8.33;3.27;;;20.20;99.90;;;;;;4372808;32;20227;-62
2021/07/08 07:07:45;;;;;;;6.37;3.07;;;20.20;99.90;;;;;;4375584;32;20499;-63
2021/07/08 07:10:12;;;;;;;5.07;3.10;;;20.20;99.90;;;;;;4374471;32;20211;-62
2021/07/08 07:12:43;;;;;;;6.27;3.20;;;20.30;99.90;;;;;;4374452;32;20606;-61
2021/07/08 07:15:11;;;;;;;8.77;3.47;;;20.80;99.90;;;;;;4372172;32;20583;-61
2021/07/08 07:17:39;;;;;;;6.03;2.90;;;21.40;99.90;;;;;;4374465;32;20202;-63
2021/07/08 07:20:09;;;;;;;2.97;2.27;;;22.10;99.90;;;;;;4374764;32;20775;-64
2021/07/08 07:22:37;;;;;;;5.97;2.60;;;22.60;99.40;;;;;;4373299;32;20168;-65
2021/07/08 07:25:06;;;;;;;3.40;2.73;;;22.80;98.50;;;;;;4373547;32;20152;-64
2021/07/08 07:27:33;;;;;;;8.13;2.80;;;23.30;98.60;;;;;;4372580;32;20149;-64
2021/07/08 07:30:03;;;;;;;4.73;2.63;;;23.60;98.00;;;;;;4374816;32;20152;-64
2021/07/08 07:32:30;;;;;;;7.53;2.50;;;23.70;97.70;;;;;;4374879;32;20149;-66
2021/07/08 07:34:57;;;;;;;8.67;2.70;;;24.10;97.10;;;;;;4374783;32;20148;-64
2021/07/08 07:37:25;;;;;;;5.30;1.83;;;24.50;96.20;;;;;;4373317;32;20148;-64
2021/07/08 07:39:53;;;;;;;2.67;1.97;;;24.60;95.20;;;;;;4375150;32;20530;-63
2021/07/08 07:42:33;;;;;;;3.20;1.73;;;24.40;95.00;;;;;;4363008;32;20243;-63
2021/07/08 07:45:03;;;;;;;2.80;1.80;;;23.90;93.60;;;;;;4358569;32;20316;-63
2021/07/08 07:47:30;;;;;;;3.43;1.73;;;23.70;94.20;;;;;;4360251;32;20477;-65
2021/07/08 07:49:57;;;;;;;5.97;2.40;;;23.00;94.50;;;;;;4359722;32;20207;-64
2021/07/08 07:52:28;;;;;;;4.37;2.30;;;23.10;95.20;;;;;;4360633;32;20163;-64
2021/07/08 07:54:55;;;;;;;4.43;1.80;;;23.70;95.50;;;;;;4360433;32;20213;-65
2021/07/08 07:57:25;;;;;;;7.77;3.27;;;24.10;95.10;;;;;;4361622;32;20220;-61
2021/07/08 07:59:55;;;;;;;6.00;3.27;;;23.60;95.20;;;;;;4364083;32;20600;-62
2021/07/08 08:02:22;;;;;;;6.13;2.60;;;23.20;96.80;;;;;;4367005;32;20145;-64
2021/07/08 08:04:56;;;;;;;5.03;2.77;;;23.40;97.00;;;;;;4369616;32;20223;-63
2021/07/08 08:10:09;;;;;;;3.67;2.20;;;23.50;96.60;;;;;;4373143;32;20568;-63
2021/07/08 08:12:36;;;;;;;2.73;2.00;;;24.60;96.10;;;;;;4370954;32;20188;-63
2021/07/08 08:15:05;;;;;;;6.57;2.37;;;24.60;93.80;;;;;;4372437;32;20170;-63
2021/07/08 08:17:34;;;;;;;4.45;2.70;;;28.20;91.70;;;;;;4372393;32;20596;-64
2021/07/08 08:20:01;;;;;;;4.20;1.73;;;32.00;74.30;;;;;;4373720;32;20474;-62
2021/07/08 08:22:28;;;;;;;3.70;2.40;;;33.20;69.50;;;;;;4373255;32;20175;-61
2021/07/08 08:24:55;;;;;;;4.60;2.30;;;35.30;64.40;;;;;;4374087;32;20149;-61
2021/07/08 08:27:23;;;;;;;3.28;1.80;;;37.60;57.00;;;;;;4373081;32;20160;-64
2021/07/08 08:29:50;;;;;;;2.45;1.45;;;41.60;50.90;;;;;;4374741;32;20229;-66
2021/07/08 08:32:17;;;;;;;4.85;1.98;;;42.40;44.60;;;;;;4373761;32;20187;-65
2021/07/08 08:34:44;;;;;;;4.90;2.87;;;43.00;43.00;;;;;;4374274;32;20672;-64
2021/07/08 08:37:10;;;;;;;4.28;2.00;;;40.60;41.00;;;;;;4373529;32;20186;-64
2021/07/08 08:39:39;;;;;;;4.05;2.28;;;36.90;44.50;;;;;;4374337;32;20564;-64
2021/07/08 08:42:08;;;;;;;4.60;2.62;;;33.70;48.10;;;;;;4374461;32;20627;-62
2021/07/08 08:44:37;;;;;;;4.00;2.62;;;31.20;52.40;;;;;;4373130;32;20239;-63
2021/07/08 08:47:08;;;;;;;4.70;2.40;;;29.40;56.10;;;;;;4372837;32;20167;-62
2021/07/08 08:49:38;;;;;;;2.72;2.12;;;28.00;60.10;;;;;;4372667;32;20177;-62
2021/07/08 08:52:07;;;;;;;6.90;3.42;;;27.00;64.10;;;;;;4375295;32;20206;-63
2021/07/08 08:54:34;;;;;;;5.93;2.97;;;25.30;68.20;;;;;;4374216;32;20140;-64
2021/07/08 08:57:01;;;;;;;5.87;3.30;;;25.50;74.70;;;;;;4373111;32;20145;-64
2021/07/08 08:59:28;;;;;;;6.72;2.90;;;25.80;73.30;;;;;;4372560;32;20284;-63
2021/07/08 09:02:13;;;;;;;8.32;3.20;;;25.90;73.60;;;;;;4372281;32;20152;-62
2021/07/08 09:04:40;;;;;;;4.35;2.15;;;27.60;75.20;;;;;;4372444;32;20218;-61
2021/07/08 09:07:23;;;;;;;3.55;2.55;;;32.60;62.70;;;;;;4373565;32;20516;-64
2021/07/08 09:09:53;;;;;;;3.92;2.30;;;32.60;57.40;;;;;;4373862;32;20245;-63
2021/07/08 09:12:22;;;;;;;3.87;2.37;;;31.00;56.90;;;;;;4373387;32;20538;-63
2021/07/08 09:14:50;;;;;;;2.72;2.08;;;29.20;59.10;;;;;;4373507;32;20206;-63
2021/07/08 09:17:19;;;;;;;3.50;1.75;;;30.10;63.20;;;;;;4371031;32;20251;-62
2021/07/08 09:19:46;;;;;;;4.07;2.50;;;31.00;60.30;;;;;;4366799;32;20565;-62
2021/07/08 09:22:13;;;;;;;4.45;3.17;;;30.10;59.20;;;;;;4373933;32;20167;-61
2021/07/08 09:24:40;;;;;;;2.37;2.12;;;28.50;62.00;;;;;;4376653;32;20191;-62
2021/07/08 09:27:10;;;;;;;3.83;2.28;;;31.90;64.20;;;;;;4375483;32;20220;-62
2021/07/08 09:29:39;;;;;;;4.20;3.17;;;38.90;51.60;;;;;;4377318;32;20224;-63
2021/07/08 09:32:12;;;;;;;3.70;2.15;;;41.50;43.90;;;;;;4377096;32;20163;-62
2021/07/08 09:34:42;;;;;;;3.65;2.08;;;42.80;42.70;;;;;;4377258;32;20226;-61
2021/07/08 09:37:11;;;;;;;3.95;2.20;;;41.20;41.00;;;;;;4376784;32;20190;-64
2021/07/08 09:39:39;;;;;;;3.90;2.45;;;40.10;40.80;;;;;;4376415;32;20152;-62
2021/07/08 09:42:07;;;;;;;5.62;2.03;;;38.10;42.40;;;;;;4376760;32;20148;-61
2021/07/08 09:44:34;;;;;;;3.17;2.12;;;35.30;45.60;;;;;;4376860;32;20144;-61
2021/07/08 09:47:01;;;;;;;5.85;2.40;;;33.80;47.40;;;;;;4376571;32;20159;-62
2021/07/08 09:49:29;;;;;;;4.03;1.83;;;35.50;47.10;;;;;;4375418;32;20160;-62
2021/07/08 09:51:58;;;;;;;3.60;1.90;;;39.10;44.30;;;;;;4376817;32;20167;-61
2021/07/08 09:54:45;;;;;;;3.15;2.00;;;42.30;41.80;;;;;;4374899;32;20171;-62
2021/07/08 09:57:32;;;;;;;3.97;2.55;;;42.60;40.10;;;;;;4375425;32;20565;-62
2021/07/08 09:59:59;;;;;;;4.85;2.03;;;38.00;41.40;;;;;;4375648;32;20555;-61
2021/07/08 10:02:30;;;;;;;3.67;2.00;;;35.40;45.00;;;;;;4374755;32;20291;-60
2021/07/08 10:04:58;;;;;;;5.35;2.35;;;33.20;47.70;;;;;;4375920;32;20562;-61
2021/07/08 10:07:26;;;;;;;3.65;2.30;;;31.70;50.40;;;;;;4374824;32;20156;-62
2021/07/08 10:09:53;;;;;;;3.00;2.53;;;30.70;53.00;;;;;;4373512;32;20434;-62
2021/07/08 10:12:20;;;;;;;4.62;2.72;;;30.20;53.10;;;;;;4373384;32;20631;-61
2021/07/08 10:14:48;;;;;;;5.57;2.90;;;29.70;55.20;;;;;;4374897;32;20167;-61
2021/07/08 10:17:16;;;;;;;6.55;2.45;;;29.40;55.80;;;;;;4375242;32;20156;-61
2021/07/08 10:19:45;;;;;;;4.78;2.30;;;29.20;56.90;;;;;;4373433;32;20171;-60
2021/07/08 10:22:12;;;;;;;5.15;2.28;;;29.20;57.80;;;;;;4377855;32;20144;-62
2021/07/08 10:24:41;;;;;;;6.28;2.15;;;29.40;56.90;;;;;;4376576;32;20140;-65
2021/07/08 10:27:08;;;;;;;5.20;2.12;;;29.30;58.20;;;;;;4374146;32;20548;-64
2021/07/08 10:29:39;;;;;;;3.20;2.20;;;29.00;56.50;;;;;;4375244;32;20169;-62
2021/07/08 10:32:08;;;;;;;3.45;2.17;;;28.80;57.40;;;;;;4374779;32;20592;-62
2021/07/08 10:34:44;;;;;;;6.10;2.10;;;28.50;57.30;;;;;;4375656;32;20166;-61
2021/07/08 10:37:13;;;;;;;3.15;2.05;;;28.50;58.70;;;;;;4375302;32;20484;-61
2021/07/08 10:39:42;;;;;;;3.05;2.10;;;28.40;57.30;;;;;;4374180;32;20148;-61
2021/07/08 10:42:09;;;;;;;5.40;2.12;;;28.40;56.10;;;;;;4373895;32;20141;-63
2021/07/08 10:44:46;;;;;;;3.05;2.17;;;28.70;58.60;;;;;;4376185;32;20152;-62
2021/07/08 10:47:34;;;;;;;8.15;2.20;;;29.40;56.80;;;;;;4375053;32;20175;-62
2021/07/08 10:50:02;;;;;;;4.40;2.30;;;29.70;57.00;;;;;;4374683;32;20663;-62
2021/07/08 10:52:44;;;;;;;4.20;2.37;;;29.20;56.80;;;;;;4376036;32;20175;-62
2021/07/08 10:55:32;;;;;;;4.07;2.12;;;28.50;57.90;;;;;;4371744;32;20180;-61
2021/07/08 10:57:59;;;;;;;5.60;2.30;;;28.20;59.70;;;;;;4372382;32;20165;-63
2021/07/08 11:00:48;;;;;;;3.03;2.35;;;28.10;58.70;;;;;;4368076;32;20172;-62
2021/07/08 11:03:46;;;;;;;4.28;2.12;;;28.00;59.50;;;;;;4366274;32;20152;-61
2021/07/08 11:06:23;;;;;;;2.25;2.00;;;28.00;59.70;;;;;;4366107;32;20148;-62
2021/07/08 11:08:52;;;;;;;3.95;2.20;;;27.80;60.10;;;;;;4371057;32;20168;-62
2021/07/08 11:12:00;;;;;;;3.67;2.62;;;27.50;61.50;;;;;;4368059;32;20148;-62
2021/07/08 11:14:29;;;;;;;1.83;1.67;;;27.20;60.20;;;;;;4361792;32;20144;-62
2021/07/08 11:16:59;;;;;;;3.95;2.35;;;27.30;61.60;;;;;;4361622;33;20151;-62
2021/07/08 11:19:35;;;;;;;3.58;2.12;;;27.20;60.80;;;;;;4370871;32;20137;-64
2021/07/08 11:22:06;;;;;;;3.60;1.98;;;26.80;61.10;;;;;;4375629;32;20475;-62
2021/07/08 11:24:44;;;;;;;2.58;1.73;;;26.90;61.20;;;;;;4377092;32;20153;-63
2021/07/08 11:27:15;;;;;;;4.37;2.10;;;27.10;61.40;;;;;;4376317;32;20254;-64
2021/07/08 11:29:44;;;;;;;3.78;1.60;;;27.20;61.00;;;;;;4376401;32;20560;-63
2021/07/08 11:32:19;;;;;;;1.80;1.70;;;27.40;60.80;;;;;;4375788;32;20184;-64
2021/07/08 11:34:56;;;;;;;3.17;2.10;;;27.80;59.20;;;;;;4373448;32;20148;-62
2021/07/08 11:37:24;;;;;;;2.10;1.90;;;28.00;60.20;;;;;;4376441;32;20198;-62
2021/07/08 11:39:57;;;;;;;1.90;1.77;;;27.90;60.60;;;;;;4377061;32;20226;-63
2021/07/08 11:42:30;;;;;;;2.85;1.90;;;27.70;60.30;;;;;;4374529;32;20153;-62
2021/07/08 11:44:57;;;;;;;2.87;1.90;;;27.50;61.60;;;;;;4377045;32;20172;-62
2021/07/08 11:47:24;;;;;;;2.78;1.77;;;27.40;61.60;;;;;;4375404;32;20487;-62
2021/07/08 11:49:51;;;;;;;2.58;1.77;;;27.50;62.10;;;;;;4374596;32;20195;-64
2021/07/08 11:52:19;;;;;;;3.15;2.22;;;27.70;62.50;;;;;;4368018;32;20141;-63
2021/07/08 11:54:57;;;;;;;3.08;2.30;;;27.60;62.30;;;;;;4376185;32;20529;-64
2021/07/08 11:57:26;;;;;;;4.35;2.20;;;27.70;60.40;;;;;;4372713;32;20156;-61
2021/07/08 11:59:54;;;;;;;3.33;2.67;;;27.80;60.60;;;;;;4374837;32;20584;-63
2021/07/08 12:02:36;;;;;;;2.25;1.95;;;27.90;62.50;;;;;;4373253;32;20458;-63
2021/07/08 12:05:16;;;;;;;3.90;1.80;;;28.10;59.80;;;;;;4374566;32;20430;-62
2021/07/08 12:07:46;;;;;;;3.65;2.05;;;28.00;58.60;;;;;;4372763;32;20152;-63
2021/07/08 12:10:13;;;;;;;2.92;1.80;;;27.90;59.40;;;;;;4374899;32;20238;-64
2021/07/08 12:12:42;;;;;;;2.10;1.70;;;27.70;59.40;;;;;;4374088;32;20188;-62
2021/07/08 12:15:09;;;;;;;3.33;1.83;;;27.70;60.70;;;;;;4374795;32;20187;-62
2021/07/08 12:17:36;;;;;;;3.62;1.83;;;27.60;60.60;;;;;;4374964;32;20235;-61
2021/07/08 12:20:09;;;;;;;1.87;1.50;;;27.70;61.10;;;;;;4375093;32;20211;-62
2021/07/08 12:22:36;;;;;;;4.68;2.20;;;27.70;62.00;;;;;;4373540;32;20156;-63
2021/07/08 12:25:14;;;;;;;2.83;2.28;;;27.70;61.00;;;;;;4374809;32;20480;-61
2021/07/08 12:27:46;;;;;;;4.78;2.40;;;28.00;61.60;;;;;;4372281;32;20182;-63
2021/07/08 12:30:20;;;;;;;3.37;1.90;;;28.30;60.80;;;;;;4372098;32;20291;-63
2021/07/08 12:32:47;;;;;;;3.90;2.47;;;28.50;60.00;;;;;;4373744;32;20175;-63
2021/07/08 12:35:14;;;;;;;4.75;2.28;;;28.50;60.30;;;;;;4375933;32;20220;-64
2021/07/08 12:37:41;;;;;;;2.42;2.22;;;28.30;58.40;;;;;;4374014;32;20580;-63
2021/07/08 12:40:11;;;;;;;3.28;2.22;;;28.30;60.30;;;;;;4374953;32;20168;-63
2021/07/08 12:42:40;;;;;;;4.70;2.20;;;28.50;58.80;;;;;;4371382;32;20479;-63
2021/07/08 12:45:11;;;;;;;2.97;2.22;;;28.40;59.50;;;;;;4374342;32;20228;-62
2021/07/08 12:47:40;;;;;;;3.05;2.30;;;28.10;59.50;;;;;;4374877;32;20143;-63
2021/07/08 12:50:08;;;;;;;3.00;2.30;;;27.80;59.50;;;;;;4375108;32;20168;-61
2021/07/08 12:52:37;;;;;;;4.55;2.42;;;27.50;60.80;;;;;;4374101;32;20610;-61
2021/07/08 12:55:06;;;;;;;2.25;1.90;;;27.40;63.20;;;;;;4374576;32;20153;-61
2021/07/08 12:57:33;;;;;;;4.45;2.20;;;27.40;61.20;;;;;;4374404;32;20151;-60
2021/07/08 13:00:01;;;;;;;4.05;3.33;;;27.20;60.60;;;;;;4377370;32;20500;-60
2021/07/08 13:02:33;;;;;;;2.80;2.60;;;27.00;61.70;;;;;;4377308;32;20157;-61